Terminal Aerodrome Forecast
Issued by NWS

Home | Current Version | Previous Version | Text Only | Print | Product List | Glossary On
Versions: 1 2 3 4 5 6 7 8 9 10 11 12 13 14 15 16 17 18 19 20 21 22
000
FTUS43 KIND 230520
TAFLAF
TAF
KLAF 230520Z 2306/2406 16010KT 1 1/2SM BR OVC003
     FM230800 01011KT 1SM BR OVC003
     FM231300 34011KT 4SM BR OVC004
     FM231700 34012KT 5SM BR OVC008
     FM232100 34011KT 6SM BR OVC010
     FM240400 33007KT 5SM BR BKN015
      AMD LTD TO CLD VIS AND WIND TIL 231400=

USA.gov is the U.S. government's official web portal to all federal, state and local government web resources and services.